Airfield :
LOGIN :

Register | Disclaimer

   EN    FR    IT 

 










Legend :    VFR   Marginal VFR   IFR   Intensive IFR   Very Intensive IFR
Visi :
Ceiling :
>= 8 km
>= 3000ft
5 to 8 km
1000 to 3000 ft
1500m to 5 km
500 to 1000 ft
800 to 1500m
200 to 500 ft
< 800m
< 200 ft
Symbols :   Thunderstorms  Fog  Heavy snow  Heavy precipitations  Wind > 20 kt
SIGMETs :     Misc.  Thunderstorms  Icing  Turbulence  Mountain Waves  Volcanic Ashes







- Airport Elevation : 913 ft
- Download approach charts


LFSX - Luxeuil

CURRENT METAR :
  • 270530Z AUTO VRB02KT CAVOK 22/20 Q1023

EXPIRED METARs :
  • 270500Z AUTO 00000KT CAVOK 20/19 Q1023
  • 270430Z AUTO 04003KT CAVOK 19/19 Q1022
  • 270400Z AUTO 12003KT 8000 NSC 18/17 Q1022
  • 270330Z AUTO 19001KT CAVOK 19/19 Q1022
  • 270300Z AUTO VRB01KT 9000 NSC 19/18 Q1022

TAF AMD TAF LFSX
Valid from the 27 at 05:00 until the 28 at 03:00 UTC


270420Z 2705/2803 12005KT CAVOK
No reported NOTAMs for that airfield.



MET'MAP, your aeronautical weather chart ! - Copyright ORBIFLY December 2007 - Disclaimer

ORBIFLY MET'MAP TEAM :

Programming & Development : Alexandra Zaïnal
Concept & Development : Baudouin d'Aumeries
Co-Development & Prog : Marc-Olivier Méhu
Technical & hardware support : Manuel Goepfert

Contact : metmap@orbifly.com




SOURCES & CREDITS :

   NOAA